createdAt,value
2017-12-12T00:00:05.426Z,931.22
2017-12-12T00:00:33.594Z,931.24
2017-12-12T00:01:01.736Z,931.23
2017-12-12T00:01:29.929Z,931.27
2017-12-12T00:01:58.011Z,931.27
2017-12-12T00:02:26.010Z,931.25
2017-12-12T00:02:54.162Z,931.26
2017-12-12T00:03:22.258Z,931.28
2017-12-12T00:03:50.208Z,931.31
2017-12-12T00:04:18.346Z,931.28
2017-12-12T00:04:46.508Z,931.25
2017-12-12T00:05:14.565Z,931.29
2017-12-12T00:05:42.648Z,931.28
2017-12-12T00:06:10.722Z,931.22
2017-12-12T00:06:38.790Z,931.36
2017-12-12T00:07:06.953Z,931.25
2017-12-12T00:07:35.003Z,931.25
2017-12-12T00:08:03.173Z,931.35
2017-12-12T00:08:31.315Z,931.25
2017-12-12T00:08:59.453Z,931.28
2017-12-12T00:09:27.474Z,931.3
2017-12-12T00:09:55.601Z,931.3
2017-12-12T00:10:23.660Z,931.29
2017-12-12T00:10:51.701Z,931.28
2017-12-12T00:11:19.844Z,931.24
2017-12-12T00:11:48.013Z,931.32
2017-12-12T00:12:15.944Z,931.39
2017-12-12T00:12:44.155Z,931.37
2017-12-12T00:13:12.314Z,931.34
2017-12-12T00:13:40.448Z,931.44
2017-12-12T00:14:08.598Z,931.34
2017-12-12T00:14:36.656Z,931.35
2017-12-12T00:15:04.920Z,931.36
2017-12-12T00:15:33.076Z,931.29
2017-12-12T00:16:01.220Z,931.45
2017-12-12T00:16:29.151Z,931.39
2017-12-12T00:16:57.180Z,931.44
2017-12-12T00:17:25.004Z,931.42
2017-12-12T00:17:53.058Z,931.44
2017-12-12T00:18:21.152Z,931.45
2017-12-12T00:18:49.286Z,931.46
2017-12-12T00:19:17.458Z,931.43
2017-12-12T00:19:45.482Z,931.44
2017-12-12T00:20:13.504Z,931.45
2017-12-12T00:20:41.519Z,931.45
2017-12-12T00:21:09.660Z,931.45
2017-12-12T00:21:37.680Z,931.45
2017-12-12T00:22:05.853Z,931.46
2017-12-12T00:22:34.008Z,931.47
2017-12-12T00:23:01.980Z,931.46
2017-12-12T00:23:30.046Z,931.45
2017-12-12T00:23:58.188Z,931.45
2017-12-12T00:24:26.104Z,931.5
2017-12-12T00:24:54.135Z,931.49
2017-12-12T00:25:22.254Z,931.51
2017-12-12T00:25:50.319Z,931.47
2017-12-12T00:26:18.466Z,931.44
2017-12-12T00:26:46.502Z,931.51
2017-12-12T00:27:14.593Z,931.49
2017-12-12T00:27:42.738Z,931.54
2017-12-12T00:28:11.057Z,931.51
2017-12-12T00:28:39.159Z,931.56
2017-12-12T00:29:07.306Z,931.53
2017-12-12T00:29:35.366Z,931.54
2017-12-12T00:30:03.415Z,931.55
2017-12-12T00:30:31.591Z,931.49
2017-12-12T00:30:59.673Z,931.56
2017-12-12T00:31:27.595Z,931.5
2017-12-12T00:31:55.636Z,931.55
2017-12-12T00:32:23.642Z,931.59
2017-12-12T00:32:51.704Z,931.57
2017-12-12T00:33:19.900Z,931.61
2017-12-12T00:33:48.246Z,931.59
2017-12-12T00:34:16.178Z,931.64
2017-12-12T00:34:44.312Z,931.65
2017-12-12T00:35:12.342Z,931.63
2017-12-12T00:35:40.459Z,931.64
2017-12-12T00:36:08.624Z,931.66
2017-12-12T00:36:36.754Z,931.7
2017-12-12T00:37:04.819Z,931.67
2017-12-12T00:37:32.875Z,931.66
2017-12-12T00:38:00.845Z,931.66
2017-12-12T00:38:28.903Z,931.74
2017-12-12T00:38:56.887Z,931.69
2017-12-12T00:39:25.032Z,931.7
2017-12-12T00:39:53.101Z,931.72
2017-12-12T00:40:21.273Z,931.7
2017-12-12T00:40:49.123Z,931.65
2017-12-12T00:41:17.171Z,931.73
2017-12-12T00:41:45.322Z,931.72
2017-12-12T00:42:13.391Z,931.68
2017-12-12T00:42:41.570Z,931.75
2017-12-12T00:43:09.693Z,931.68
2017-12-12T00:43:37.799Z,931.68
2017-12-12T00:44:05.974Z,931.7
2017-12-12T00:44:33.960Z,931.71
2017-12-12T00:45:02.131Z,931.73
2017-12-12T00:45:30.361Z,931.74
2017-12-12T00:45:58.534Z,931.72
2017-12-12T00:46:26.500Z,931.72
2017-12-12T00:46:54.681Z,931.76
2017-12-12T00:47:22.834Z,931.67
2017-12-12T00:47:50.867Z,931.74
2017-12-12T00:48:18.966Z,931.78
2017-12-12T00:48:47.095Z,931.72
2017-12-12T00:49:15.246Z,931.8
2017-12-12T00:49:43.317Z,931.76
2017-12-12T00:50:11.346Z,931.79
2017-12-12T00:50:39.389Z,931.75
2017-12-12T00:51:07.420Z,931.8
2017-12-12T00:51:35.574Z,931.8
2017-12-12T00:52:03.710Z,931.87
2017-12-12T00:52:31.823Z,931.79
2017-12-12T00:52:59.976Z,931.8
2017-12-12T00:53:27.728Z,931.82
2017-12-12T00:53:55.730Z,931.8
2017-12-12T00:54:23.907Z,931.85
2017-12-12T00:54:51.883Z,931.8
2017-12-12T00:55:19.934Z,931.81
2017-12-12T00:55:47.874Z,931.8
2017-12-12T00:56:16.007Z,931.84
2017-12-12T00:56:44.024Z,931.87
2017-12-12T00:57:12.049Z,931.83
2017-12-12T00:57:40.213Z,931.82
2017-12-12T00:58:08.362Z,931.84
2017-12-12T00:58:36.513Z,931.85
2017-12-12T00:59:04.587Z,931.86
2017-12-12T00:59:32.761Z,931.86
2017-12-12T01:00:00.894Z,931.86
2017-12-12T01:00:28.815Z,931.8
2017-12-12T01:00:56.662Z,931.89
2017-12-12T01:01:24.799Z,931.87
2017-12-12T01:01:52.852Z,931.85
2017-12-12T01:02:20.765Z,931.87
2017-12-12T01:02:48.941Z,931.91
2017-12-12T01:03:16.913Z,931.87
2017-12-12T01:03:45.023Z,931.9
2017-12-12T01:04:13.162Z,931.8
2017-12-12T01:04:41.323Z,931.91
2017-12-12T01:05:09.267Z,931.87
2017-12-12T01:05:37.396Z,931.94
2017-12-12T01:06:05.308Z,931.91
2017-12-12T01:06:33.364Z,931.93
2017-12-12T01:07:01.324Z,931.93
2017-12-12T01:07:29.358Z,931.97
2017-12-12T01:07:57.507Z,931.96
2017-12-12T01:08:25.529Z,931.98
2017-12-12T01:08:53.664Z,931.95
2017-12-12T01:09:21.807Z,932
2017-12-12T01:09:49.969Z,931.97
2017-12-12T01:10:18.134Z,932.01
2017-12-12T01:10:46.479Z,932.02
2017-12-12T01:11:14.494Z,932
2017-12-12T01:11:42.514Z,931.98
2017-12-12T01:12:10.452Z,931.99
2017-12-12T01:12:38.369Z,932.04
2017-12-12T01:13:06.528Z,932.02
2017-12-12T01:13:34.712Z,932
2017-12-12T01:14:02.768Z,931.97
2017-12-12T01:14:30.877Z,932.02
2017-12-12T01:14:58.886Z,931.97
2017-12-12T01:15:27.028Z,931.99
2017-12-12T01:15:55.062Z,932.02
2017-12-12T01:16:22.998Z,932.02
2017-12-12T01:16:51.004Z,931.96
2017-12-12T01:17:19.034Z,931.97
2017-12-12T01:17:47.157Z,932.01
2017-12-12T01:18:15.230Z,932.04
2017-12-12T01:18:43.396Z,932.05
2017-12-12T01:19:11.567Z,932.02
2017-12-12T01:19:39.480Z,932.01
2017-12-12T01:20:07.528Z,932.08
2017-12-12T01:20:35.710Z,932.05
2017-12-12T01:21:03.787Z,932.04
2017-12-12T01:21:31.799Z,932.08
2017-12-12T01:21:59.834Z,932.06
2017-12-12T01:22:27.995Z,932.1
2017-12-12T01:22:56.006Z,932.11
2017-12-12T01:23:24.171Z,932.1
2017-12-12T01:23:52.269Z,932.11
2017-12-12T01:24:20.404Z,932.11
2017-12-12T01:24:48.345Z,932.1
2017-12-12T01:25:16.298Z,932.14
2017-12-12T01:25:44.366Z,932.15
2017-12-12T01:26:12.508Z,932.12
2017-12-12T01:26:40.656Z,932.15
2017-12-12T01:27:08.697Z,932.14
2017-12-12T01:27:36.848Z,932.13
2017-12-12T01:28:04.879Z,932.14
2017-12-12T01:28:33.023Z,932.17
2017-12-12T01:29:01.195Z,932.13
2017-12-12T01:29:29.256Z,932.18
2017-12-12T01:29:57.386Z,932.17
2017-12-12T01:30:25.510Z,932.14
2017-12-12T01:30:53.724Z,932.16
2017-12-12T01:31:21.800Z,932.15
2017-12-12T01:31:49.947Z,932.18
2017-12-12T01:32:17.867Z,932.19
2017-12-12T01:32:45.847Z,932.17
2017-12-12T01:33:13.974Z,932.14
2017-12-12T01:33:42.078Z,932.2
2017-12-12T01:34:10.055Z,932.15
2017-12-12T01:34:38.203Z,932.18
2017-12-12T01:35:06.325Z,932.13
2017-12-12T01:35:34.486Z,932.15
2017-12-12T01:36:02.623Z,932.16
2017-12-12T01:36:30.769Z,932.18
2017-12-12T01:36:58.881Z,932.2
2017-12-12T01:37:26.817Z,932.16
2017-12-12T01:37:54.944Z,932.21
2017-12-12T01:38:22.872Z,932.16
2017-12-12T01:38:50.982Z,932.15
2017-12-12T01:39:19.124Z,932.18
2017-12-12T01:39:47.188Z,932.21
2017-12-12T01:40:15.145Z,932.18
2017-12-12T01:40:43.274Z,932.13
2017-12-12T01:41:11.455Z,932.16
2017-12-12T01:41:39.467Z,932.19
2017-12-12T01:42:07.487Z,932.16
2017-12-12T01:42:35.610Z,932.21
2017-12-12T01:43:03.777Z,932.1
2017-12-12T01:43:31.917Z,932.18
2017-12-12T01:44:00.106Z,932.2
2017-12-12T01:44:28.142Z,932.19
2017-12-12T01:44:56.312Z,932.16
2017-12-12T01:45:24.228Z,932.17
2017-12-12T01:45:52.359Z,932.2
2017-12-12T01:46:20.570Z,932.19
2017-12-12T01:46:48.600Z,932.25
2017-12-12T01:47:16.756Z,932.16
2017-12-12T01:47:44.807Z,932.18
2017-12-12T01:48:12.784Z,932.19
2017-12-12T01:48:40.906Z,932.23
2017-12-12T01:49:08.879Z,932.2
2017-12-12T01:49:36.902Z,932.19
2017-12-12T01:50:04.998Z,932.18
2017-12-12T01:50:33.048Z,932.22
2017-12-12T01:51:01.190Z,932.17
2017-12-12T01:51:29.090Z,932.2
2017-12-12T01:51:57.223Z,932.22
2017-12-12T01:52:25.265Z,932.18
2017-12-12T01:52:53.415Z,932.19
2017-12-12T01:53:21.245Z,932.23
2017-12-12T01:53:49.277Z,932.18
2017-12-12T01:54:17.335Z,932.18
2017-12-12T01:54:45.291Z,932.2
2017-12-12T01:55:13.322Z,932.18
2017-12-12T01:55:41.373Z,932.19
2017-12-12T01:56:09.564Z,932.2
2017-12-12T01:56:37.631Z,932.25
2017-12-12T01:57:05.827Z,932.21
2017-12-12T01:57:33.868Z,932.24
2017-12-12T01:58:01.971Z,932.23
2017-12-12T01:58:30.005Z,932.22
2017-12-12T01:58:58.177Z,932.23
2017-12-12T01:59:26.372Z,932.2
2017-12-12T01:59:54.495Z,932.24
2017-12-12T02:00:22.585Z,932.17
2017-12-12T02:00:50.710Z,932.26
2017-12-12T02:01:18.914Z,932.21
2017-12-12T02:01:47.059Z,932.24
2017-12-12T02:02:15.197Z,932.27
2017-12-12T02:02:43.339Z,932.2
2017-12-12T02:03:11.401Z,932.22
2017-12-12T02:03:39.494Z,932.23
2017-12-12T02:04:07.552Z,932.22
2017-12-12T02:04:35.679Z,932.19
2017-12-12T02:05:03.636Z,932.2
2017-12-12T02:05:31.692Z,932.21
2017-12-12T02:05:59.802Z,932.22
2017-12-12T02:06:27.942Z,932.26
2017-12-12T02:06:55.892Z,932.19
2017-12-12T02:07:23.910Z,932.17
2017-12-12T02:07:52.036Z,932.26
2017-12-12T02:08:20.166Z,932.23
2017-12-12T02:08:48.108Z,932.18
2017-12-12T02:09:16.117Z,932.18
2017-12-12T02:09:44.242Z,932.18
2017-12-12T02:10:12.201Z,932.22
2017-12-12T02:10:40.248Z,932.18
2017-12-12T02:11:08.366Z,932.19
2017-12-12T02:11:36.347Z,932.24
2017-12-12T02:12:04.496Z,932.2
2017-12-12T02:12:32.487Z,932.22
2017-12-12T02:13:00.634Z,932.18
2017-12-12T02:13:28.791Z,932.18
2017-12-12T02:13:56.960Z,932.25
2017-12-12T02:14:24.905Z,932.15
2017-12-12T02:14:52.937Z,932.22
2017-12-12T02:15:20.965Z,932.19
2017-12-12T02:15:49.024Z,932.21
2017-12-12T02:16:17.167Z,932.13
2017-12-12T02:16:45.059Z,932.17
2017-12-12T02:17:13.090Z,932.24
2017-12-12T02:17:41.206Z,932.21
2017-12-12T02:18:09.383Z,932.17
2017-12-12T02:18:37.429Z,932.14
2017-12-12T02:19:05.715Z,932.2
2017-12-12T02:19:33.767Z,932.19
2017-12-12T02:20:01.949Z,932.21
2017-12-12T02:20:30.077Z,932.2
2017-12-12T02:20:58.104Z,932.16
2017-12-12T02:21:26.198Z,932.22
2017-12-12T02:21:54.150Z,932.21
2017-12-12T02:22:22.280Z,932.17
2017-12-12T02:22:50.412Z,932.16
2017-12-12T02:23:18.576Z,932.14
2017-12-12T02:23:46.752Z,932.2
2017-12-12T02:24:14.842Z,932.17
2017-12-12T02:24:42.986Z,932.19
2017-12-12T02:25:11.012Z,932.19
2017-12-12T02:25:38.953Z,932.1
2017-12-12T02:26:07.017Z,932.15
2017-12-12T02:26:35.236Z,932.13
2017-12-12T02:27:03.277Z,932.11
2017-12-12T02:27:31.409Z,932.22
2017-12-12T02:27:59.572Z,932.12
2017-12-12T02:28:27.726Z,932.17
2017-12-12T02:28:55.762Z,932.16
2017-12-12T02:29:23.883Z,932.16
2017-12-12T02:29:52.067Z,932.15
2017-12-12T02:30:20.111Z,932.16
2017-12-12T02:30:48.150Z,932.16
2017-12-12T02:31:16.290Z,932.12
2017-12-12T02:31:44.358Z,932.18
2017-12-12T02:32:12.291Z,932.13
2017-12-12T02:32:40.470Z,932.17
2017-12-12T02:33:08.542Z,932.14
2017-12-12T02:33:36.700Z,932.17
2017-12-12T02:34:04.891Z,932.12
2017-12-12T02:34:32.940Z,932.12
2017-12-12T02:35:00.888Z,932.18
2017-12-12T02:35:28.914Z,932.12
2017-12-12T02:35:56.824Z,932.14
2017-12-12T02:36:24.863Z,932.17
2017-12-12T02:36:53.048Z,932.21
2017-12-12T02:37:21.083Z,932.18
2017-12-12T02:37:49.114Z,932.17
2017-12-12T02:38:17.241Z,932.15
2017-12-12T02:38:45.385Z,932.14
2017-12-12T02:39:13.507Z,932.23
2017-12-12T02:39:41.642Z,932.12
2017-12-12T02:40:09.770Z,932.19
2017-12-12T02:40:37.895Z,932.18
2017-12-12T02:41:06.039Z,932.19
2017-12-12T02:41:34.324Z,932.17
2017-12-12T02:42:02.445Z,932.24
2017-12-12T02:42:30.523Z,932.27
2017-12-12T02:42:58.668Z,932.27
2017-12-12T02:43:26.783Z,932.25
2017-12-12T02:43:54.824Z,932.23
2017-12-12T02:44:22.874Z,932.23
2017-12-12T02:44:51.039Z,932.24
2017-12-12T02:45:19.187Z,932.26
2017-12-12T02:45:47.138Z,932.25
2017-12-12T02:46:15.315Z,932.23
2017-12-12T02:46:43.570Z,932.23
2017-12-12T02:47:11.591Z,932.24
2017-12-12T02:47:39.597Z,932.27
2017-12-12T02:48:07.540Z,932.31
2017-12-12T02:48:35.692Z,932.28
2017-12-12T02:49:03.736Z,932.25
2017-12-12T02:49:31.752Z,932.29
2017-12-12T02:49:59.704Z,932.27
2017-12-12T02:50:27.724Z,932.3
2017-12-12T02:50:55.719Z,932.29
2017-12-12T02:51:23.749Z,932.29
2017-12-12T02:51:51.877Z,932.29
2017-12-12T02:52:20.104Z,932.3
2017-12-12T02:52:48.084Z,932.25
2017-12-12T02:53:16.137Z,932.29
2017-12-12T02:53:44.266Z,932.29
2017-12-12T02:54:12.405Z,932.26
2017-12-12T02:54:40.569Z,932.29
2017-12-12T02:55:08.417Z,932.31
2017-12-12T02:55:36.364Z,932.27
2017-12-12T02:56:04.494Z,932.21
2017-12-12T02:56:32.645Z,932.22
2017-12-12T02:57:00.803Z,932.25
2017-12-12T02:57:28.859Z,932.26
2017-12-12T02:57:56.891Z,932.23
2017-12-12T02:58:24.961Z,932.26
2017-12-12T02:58:52.994Z,932.29
2017-12-12T02:59:21.052Z,932.28
2017-12-12T02:59:49.183Z,932.29
2017-12-12T03:00:17.210Z,932.23
2017-12-12T03:00:45.120Z,932.29
2017-12-12T03:01:13.179Z,932.28
2017-12-12T03:01:41.239Z,932.31
2017-12-12T03:02:09.501Z,932.27
2017-12-12T03:02:37.536Z,932.22
2017-12-12T03:03:05.674Z,932.24
2017-12-12T03:03:33.780Z,932.28
2017-12-12T03:04:01.922Z,932.26
2017-12-12T03:04:30.074Z,932.26
2017-12-12T03:04:58.229Z,932.26
2017-12-12T03:05:26.322Z,932.26
2017-12-12T03:05:54.450Z,932.26
2017-12-12T03:06:22.600Z,932.29
2017-12-12T03:06:50.813Z,932.28
2017-12-12T03:07:18.933Z,932.26
2017-12-12T03:07:47.102Z,932.23
2017-12-12T03:08:15.198Z,932.24
2017-12-12T03:08:43.309Z,932.27
2017-12-12T03:09:11.447Z,932.28
2017-12-12T03:09:39.648Z,932.26
2017-12-12T03:10:07.777Z,932.25
2017-12-12T03:10:35.768Z,932.23
2017-12-12T03:11:03.778Z,932.22
2017-12-12T03:11:31.839Z,932.28
2017-12-12T03:12:00.231Z,932.23
2017-12-12T03:12:28.359Z,932.21
2017-12-12T03:12:56.204Z,932.3
2017-12-12T03:13:24.224Z,932.25
2017-12-12T03:13:52.254Z,932.29
2017-12-12T03:14:20.278Z,932.23
2017-12-12T03:14:48.414Z,932.27
2017-12-12T03:15:16.473Z,932.28
2017-12-12T03:15:44.624Z,932.24
2017-12-12T03:16:12.777Z,932.22
2017-12-12T03:16:40.876Z,932.18
2017-12-12T03:17:08.995Z,932.25
2017-12-12T03:17:37.153Z,932.21
2017-12-12T03:18:05.307Z,932.18
2017-12-12T03:18:33.257Z,932.19
2017-12-12T03:19:01.286Z,932.17
2017-12-12T03:19:29.439Z,932.16
2017-12-12T03:19:57.393Z,932.18
2017-12-12T03:20:25.428Z,932.19
2017-12-12T03:20:53.458Z,932.18
2017-12-12T03:21:21.526Z,932.16
2017-12-12T03:21:49.581Z,932.19
2017-12-12T03:22:17.686Z,932.13
2017-12-12T03:22:45.853Z,932.12
2017-12-12T03:23:14.002Z,932.17
2017-12-12T03:23:42.137Z,932.18
2017-12-12T03:24:10.287Z,932.13
2017-12-12T03:24:38.288Z,932.14
2017-12-12T03:25:06.444Z,932.18
2017-12-12T03:25:34.580Z,932.13
2017-12-12T03:26:02.626Z,932.11
2017-12-12T03:26:30.785Z,932.11
2017-12-12T03:26:58.837Z,932.13
2017-12-12T03:27:26.969Z,932.12
2017-12-12T03:27:55.102Z,932.08
2017-12-12T03:28:23.209Z,932.07
2017-12-12T03:28:51.366Z,932.08
2017-12-12T03:29:19.299Z,932.02
2017-12-12T03:29:47.425Z,932.06
2017-12-12T03:30:15.432Z,932.05
2017-12-12T03:30:43.552Z,932.03
2017-12-12T03:31:11.681Z,932
2017-12-12T03:31:39.757Z,932.03
2017-12-12T03:32:08.011Z,931.97
2017-12-12T03:32:36.116Z,932.03
2017-12-12T03:33:04.137Z,932.06
2017-12-12T03:33:32.282Z,932.03
2017-12-12T03:34:00.434Z,932
2017-12-12T03:34:28.586Z,932.04
2017-12-12T03:34:56.641Z,932.02
2017-12-12T03:35:24.754Z,932.05
2017-12-12T03:35:52.907Z,931.99
2017-12-12T03:36:21.107Z,932.03
2017-12-12T03:36:49.277Z,932.05
2017-12-12T03:37:17.213Z,932.02
2017-12-12T03:37:45.386Z,932.03
2017-12-12T03:38:13.324Z,932.01
2017-12-12T03:38:41.257Z,932.04
2017-12-12T03:39:09.427Z,932.02
2017-12-12T03:39:37.578Z,931.97
2017-12-12T03:40:05.494Z,931.99
2017-12-12T03:40:33.659Z,931.98
2017-12-12T03:41:01.623Z,932
2017-12-12T03:41:29.782Z,931.93
2017-12-12T03:41:57.959Z,931.97
2017-12-12T03:42:26.362Z,931.96
2017-12-12T03:42:54.427Z,931.96
2017-12-12T03:43:22.619Z,931.96
2017-12-12T03:43:50.733Z,931.97
2017-12-12T03:44:18.862Z,931.95
2017-12-12T03:44:47.041Z,931.91
2017-12-12T03:45:15.214Z,931.92
2017-12-12T03:45:43.301Z,931.92
2017-12-12T03:46:11.429Z,931.91
2017-12-12T03:46:39.461Z,931.93
2017-12-12T03:47:07.571Z,931.9
2017-12-12T03:47:35.780Z,931.88
2017-12-12T03:48:03.944Z,931.87
2017-12-12T03:48:32.005Z,931.86
2017-12-12T03:49:00.013Z,931.88
2017-12-12T03:49:28.145Z,931.87
2017-12-12T03:49:56.312Z,931.89
2017-12-12T03:50:24.338Z,931.86
2017-12-12T03:50:52.485Z,931.88
2017-12-12T03:51:20.497Z,931.84
2017-12-12T03:51:48.667Z,931.84
2017-12-12T03:52:16.708Z,931.89
2017-12-12T03:52:44.853Z,931.91
2017-12-12T03:53:12.970Z,931.82
2017-12-12T03:53:41.140Z,931.82
2017-12-12T03:54:09.285Z,931.81
2017-12-12T03:54:37.308Z,931.84
2017-12-12T03:55:05.478Z,931.84
2017-12-12T03:55:33.608Z,931.83
2017-12-12T03:56:01.577Z,931.76
2017-12-12T03:56:29.742Z,931.82
2017-12-12T03:56:57.886Z,931.81
2017-12-12T03:57:25.848Z,931.82
2017-12-12T03:57:53.911Z,931.87
2017-12-12T03:58:22.062Z,931.83
2017-12-12T03:58:50.201Z,931.84
2017-12-12T03:59:18.308Z,931.8
2017-12-12T03:59:46.230Z,931.83
2017-12-12T04:00:14.275Z,931.8
2017-12-12T04:00:42.456Z,931.81
2017-12-12T04:01:10.410Z,931.81
2017-12-12T04:01:38.524Z,931.8
2017-12-12T04:02:06.701Z,931.77
2017-12-12T04:02:34.852Z,931.81
2017-12-12T04:03:02.984Z,931.77
2017-12-12T04:03:31.117Z,931.79
2017-12-12T04:03:59.188Z,931.73
2017-12-12T04:04:27.251Z,931.74
2017-12-12T04:04:55.287Z,931.73
2017-12-12T04:05:23.376Z,931.68
2017-12-12T04:05:51.402Z,931.68
2017-12-12T04:06:19.366Z,931.7
2017-12-12T04:06:47.349Z,931.72
2017-12-12T04:07:15.393Z,931.7
2017-12-12T04:07:43.436Z,931.68
2017-12-12T04:08:11.583Z,931.66
2017-12-12T04:08:39.669Z,931.66
2017-12-12T04:09:07.809Z,931.67
2017-12-12T04:09:35.970Z,931.63
2017-12-12T04:10:04.139Z,931.66
2017-12-12T04:10:32.297Z,931.69
2017-12-12T04:11:00.450Z,931.69
2017-12-12T04:11:28.605Z,931.65
2017-12-12T04:11:56.748Z,931.66
2017-12-12T04:12:24.888Z,931.64
2017-12-12T04:12:52.925Z,931.63
2017-12-12T04:13:20.979Z,931.63
2017-12-12T04:13:49.203Z,931.66
2017-12-12T04:14:17.437Z,931.63
2017-12-12T04:14:45.492Z,931.61
2017-12-12T04:15:13.532Z,931.66
2017-12-12T04:15:41.678Z,931.65
2017-12-12T04:16:09.609Z,931.64
2017-12-12T04:16:37.785Z,931.68
2017-12-12T04:17:05.885Z,931.71
2017-12-12T04:17:33.929Z,931.65
2017-12-12T04:18:02.148Z,931.68
2017-12-12T04:18:30.274Z,931.72
2017-12-12T04:18:58.406Z,931.71
2017-12-12T04:19:26.747Z,931.65
2017-12-12T04:19:54.773Z,931.66
2017-12-12T04:20:22.915Z,931.67
2017-12-12T04:20:51.035Z,931.66
2017-12-12T04:21:19.232Z,931.68
2017-12-12T04:21:47.245Z,931.7
2017-12-12T04:22:15.285Z,931.66
2017-12-12T04:22:43.316Z,931.65
2017-12-12T04:23:11.515Z,931.67
2017-12-12T04:23:39.545Z,931.63
2017-12-12T04:24:07.704Z,931.66
2017-12-12T04:24:35.836Z,931.67
2017-12-12T04:25:03.756Z,931.66
2017-12-12T04:25:31.783Z,931.65
2017-12-12T04:25:59.804Z,931.65
2017-12-12T04:26:27.856Z,931.66
2017-12-12T04:26:56.013Z,931.65
2017-12-12T04:27:24.164Z,931.68
2017-12-12T04:27:52.305Z,931.65
2017-12-12T04:28:20.495Z,931.62
2017-12-12T04:28:48.438Z,931.66
2017-12-12T04:29:16.462Z,931.66
2017-12-12T04:29:44.609Z,931.64
2017-12-12T04:30:12.727Z,931.67
2017-12-12T04:30:40.869Z,931.69
2017-12-12T04:31:08.992Z,931.65
2017-12-12T04:31:36.861Z,931.65
2017-12-12T04:32:05.013Z,931.66
2017-12-12T04:32:32.932Z,931.69
2017-12-12T04:33:01.155Z,931.66
2017-12-12T04:33:29.258Z,931.67
2017-12-12T04:33:57.389Z,931.64
2017-12-12T04:34:25.344Z,931.66
2017-12-12T04:34:53.292Z,931.66
2017-12-12T04:35:21.352Z,931.71
2017-12-12T04:35:49.404Z,931.66
2017-12-12T04:36:17.536Z,931.7
2017-12-12T04:36:45.600Z,931.69
2017-12-12T04:37:13.752Z,931.65
2017-12-12T04:37:41.907Z,931.66
2017-12-12T04:38:09.821Z,931.68
2017-12-12T04:38:37.830Z,931.68
2017-12-12T04:39:05.981Z,931.7
2017-12-12T04:39:34.094Z,931.72
2017-12-12T04:40:02.158Z,931.67
2017-12-12T04:40:30.196Z,931.66
2017-12-12T04:40:58.383Z,931.63
2017-12-12T04:41:26.433Z,931.67
2017-12-12T04:41:54.623Z,931.68
2017-12-12T04:42:22.761Z,931.67
2017-12-12T04:42:50.921Z,931.66
2017-12-12T04:43:19.246Z,931.61
2017-12-12T04:43:47.283Z,931.63
2017-12-12T04:44:15.261Z,931.6
2017-12-12T04:44:43.295Z,931.65
2017-12-12T04:45:11.472Z,931.68
2017-12-12T04:45:39.606Z,931.69
2017-12-12T04:46:07.642Z,931.64
2017-12-12T04:46:35.618Z,931.66
2017-12-12T04:47:03.633Z,931.64
2017-12-12T04:47:31.707Z,931.64
2017-12-12T04:47:59.829Z,931.64
2017-12-12T04:48:27.807Z,931.69
2017-12-12T04:48:55.840Z,931.69
2017-12-12T04:49:23.918Z,931.67
2017-12-12T04:49:52.015Z,931.65
2017-12-12T04:50:20.043Z,931.65
2017-12-12T04:50:48.178Z,931.68
2017-12-12T04:51:16.332Z,931.67
2017-12-12T04:51:44.490Z,931.71
2017-12-12T04:52:12.602Z,931.67
2017-12-12T04:52:40.673Z,931.72
2017-12-12T04:53:08.861Z,931.68
2017-12-12T04:53:36.830Z,931.71
2017-12-12T04:54:04.982Z,931.68
2017-12-12T04:54:33.051Z,931.69
2017-12-12T04:55:01.204Z,931.7
2017-12-12T04:55:29.246Z,931.65
2017-12-12T04:55:57.278Z,931.66
2017-12-12T04:56:25.430Z,931.65
2017-12-12T04:56:53.482Z,931.68
2017-12-12T04:57:21.514Z,931.67
2017-12-12T04:57:49.574Z,931.65
2017-12-12T04:58:17.632Z,931.69
2017-12-12T04:58:45.635Z,931.7
2017-12-12T04:59:13.763Z,931.68
2017-12-12T04:59:41.800Z,931.71
2017-12-12T05:00:09.927Z,931.73
2017-12-12T05:00:38.076Z,931.71
2017-12-12T05:01:06.107Z,931.71
2017-12-12T05:01:34.267Z,931.68
2017-12-12T05:02:02.424Z,931.66
2017-12-12T05:02:30.473Z,931.71
2017-12-12T05:02:58.599Z,931.73
2017-12-12T05:03:26.808Z,931.72
2017-12-12T05:03:54.864Z,931.71
2017-12-12T05:04:22.975Z,931.7
2017-12-12T05:04:51.086Z,931.7
2017-12-12T05:05:19.206Z,931.72
2017-12-12T05:05:47.356Z,931.76
2017-12-12T05:06:15.515Z,931.77
2017-12-12T05:06:43.634Z,931.7
2017-12-12T05:07:11.807Z,931.72
2017-12-12T05:07:39.861Z,931.72
2017-12-12T05:08:08.036Z,931.75
2017-12-12T05:08:36.156Z,931.74
2017-12-12T05:09:04.301Z,931.77
2017-12-12T05:09:32.370Z,931.72
2017-12-12T05:10:00.486Z,931.74
2017-12-12T05:10:28.651Z,931.76
2017-12-12T05:10:56.789Z,931.69
2017-12-12T05:11:24.818Z,931.75
2017-12-12T05:11:52.786Z,931.72
2017-12-12T05:12:20.921Z,931.73
2017-12-12T05:12:49.070Z,931.74
2017-12-12T05:13:17.374Z,931.72
2017-12-12T05:13:45.411Z,931.7
2017-12-12T05:14:13.450Z,931.68
2017-12-12T05:14:41.713Z,931.72
2017-12-12T05:15:09.879Z,931.75
2017-12-12T05:15:38.074Z,931.69
2017-12-12T05:16:06.238Z,931.68
2017-12-12T05:16:34.373Z,931.69
2017-12-12T05:17:02.500Z,931.7
2017-12-12T05:17:30.507Z,931.7
2017-12-12T05:17:58.635Z,931.72
2017-12-12T05:18:26.748Z,931.69
2017-12-12T05:18:54.956Z,931.69
2017-12-12T05:19:23.089Z,931.66
2017-12-12T05:19:51.119Z,931.67
2017-12-12T05:20:19.262Z,931.7
2017-12-12T05:20:47.315Z,931.69
2017-12-12T05:21:15.448Z,931.7
2017-12-12T05:21:43.595Z,931.67
2017-12-12T05:22:11.647Z,931.67
2017-12-12T05:22:39.780Z,931.71
2017-12-12T05:23:07.909Z,931.67
2017-12-12T05:23:36.070Z,931.66
2017-12-12T05:24:04.241Z,931.72
2017-12-12T05:24:32.147Z,931.7
2017-12-12T05:25:00.079Z,931.72
2017-12-12T05:25:28.128Z,931.72
2017-12-12T05:25:56.213Z,931.68
2017-12-12T05:26:24.362Z,931.73
2017-12-12T05:26:52.408Z,931.72
2017-12-12T05:27:20.763Z,931.74
2017-12-12T05:27:48.918Z,931.69
2017-12-12T05:28:17.017Z,931.74
2017-12-12T05:28:45.160Z,931.76
2017-12-12T05:29:13.293Z,931.71
2017-12-12T05:29:41.223Z,931.73
2017-12-12T05:30:09.356Z,931.74
2017-12-12T05:30:37.433Z,931.73
2017-12-12T05:31:05.465Z,931.68
2017-12-12T05:31:33.592Z,931.68
2017-12-12T05:32:01.725Z,931.74
2017-12-12T05:32:29.654Z,931.68
2017-12-12T05:32:57.790Z,931.69
2017-12-12T05:33:25.939Z,931.67
2017-12-12T05:33:54.096Z,931.67
2017-12-12T05:34:22.107Z,931.66
2017-12-12T05:34:50.164Z,931.67
2017-12-12T05:35:18.226Z,931.63
2017-12-12T05:35:46.253Z,931.65
2017-12-12T05:36:14.431Z,931.65
2017-12-12T05:36:42.444Z,931.67
2017-12-12T05:37:10.572Z,931.69
2017-12-12T05:37:38.642Z,931.68
2017-12-12T05:38:06.805Z,931.67
2017-12-12T05:38:34.983Z,931.71
2017-12-12T05:39:03.134Z,931.66
2017-12-12T05:39:31.273Z,931.7
2017-12-12T05:39:59.425Z,931.67
2017-12-12T05:40:27.572Z,931.67
2017-12-12T05:40:55.591Z,931.7
2017-12-12T05:41:23.634Z,931.68
2017-12-12T05:41:51.794Z,931.65
2017-12-12T05:42:19.932Z,931.64
2017-12-12T05:42:48.122Z,931.64
2017-12-12T05:43:16.279Z,931.68
2017-12-12T05:43:44.318Z,931.67
2017-12-12T05:44:12.362Z,931.67
2017-12-12T05:44:40.513Z,931.65
2017-12-12T05:45:08.550Z,931.68
2017-12-12T05:45:36.466Z,931.65
2017-12-12T05:46:04.637Z,931.61
2017-12-12T05:46:32.714Z,931.66
2017-12-12T05:47:00.842Z,931.66
2017-12-12T05:47:28.979Z,931.68
2017-12-12T05:47:56.925Z,931.68
2017-12-12T05:48:24.934Z,931.65
2017-12-12T05:48:53.160Z,931.63
2017-12-12T05:49:21.197Z,931.69
2017-12-12T05:49:49.347Z,931.7
2017-12-12T05:50:17.281Z,931.66
2017-12-12T05:50:45.321Z,931.68
2017-12-12T05:51:13.155Z,931.69
2017-12-12T05:51:41.319Z,931.68